Home > Products > Valid Products > TAF

000
FTUS42 KTAE 302300
TAFVLD
TAF
KVLD 302320Z 3100/3124 33003KT P6SM SKC
     FM311500 08007KT P6SM SKC=



000
FTUS42 KTAE 302300
TAFTLH
TAF
KTLH 302320Z 3100/3124 36004KT P6SM SKC
     FM311500 08005KT P6SM SKC=



000
FTUS42 KTAE 302300
TAFDHN
TAF
KDHN 302320Z 3100/3124 01004KT P6SM SKC
     FM311500 08006KT P6SM SKC=



000
FTUS42 KTAE 302300
TAFABY
TAF
KABY 302320Z 3100/3124 33004KT P6SM SKC
     FM311500 08006KT P6SM SKC=



000
FTUS42 KTAE 302100 AAA
TAFVLD
TAF AMD
KVLD 302112Z 3021/3118 35008KT P6SM FEW250
     FM310000 33003KT P6SM SKC
     FM311500 08007KT P6SM SKC=



000
FTUS42 KTAE 302100 AAA
TAFTLH
TAF AMD
KTLH 302111Z 3021/3118 36010G15KT P6SM FEW250
     FM310000 36004KT P6SM SKC
     FM311500 08005KT P6SM SKC=



000
FTUS42 KTAE 301700
TAFVLD
TAF
KVLD 301736Z 3018/3118 35010G15KT P6SM FEW250
     FM310000 33003KT P6SM SKC
     FM311500 08007KT P6SM SKC=



000
FTUS42 KTAE 301700
TAFTLH
TAF
KTLH 301736Z 3018/3118 36012G21KT P6SM FEW250
     FM310000 36004KT P6SM SKC
     FM311500 08005KT P6SM SKC=



000
FTUS42 KTAE 301700
TAFDHN
TAF
KDHN 301736Z 3018/3118 34011G15KT P6SM FEW250
     FM310000 01004KT P6SM SKC
     FM311500 08006KT P6SM SKC=



000
FTUS42 KTAE 301700
TAFABY
TAF
KABY 301736Z 3018/3118 34010G16KT P6SM FEW250
     FM310000 33004KT P6SM SKC
     FM311500 08006KT P6SM SKC=



000
FTUS42 KTAE 301100
TAFVLD
TAF
KVLD 301120Z 3012/3112 34007KT P6SM SCT030 OVC060
     FM301400 34010G15KT P6SM FEW250
     FM310000 33003KT P6SM SKC=



000
FTUS42 KTAE 301100
TAFTLH
TAF
KTLH 301120Z 3012/3112 30007KT P6SM FEW019 SCT030 OVC060
     FM301400 34010G15KT P6SM FEW250
     FM310000 36004KT P6SM SKC=



000
FTUS42 KTAE 301100
TAFDHN
TAF
KDHN 301120Z 3012/3112 34011G17KT P6SM FEW250
     FM310000 34004KT P6SM SKC=



000
FTUS42 KTAE 301100
TAFABY
TAF
KABY 301120Z 3012/3112 31010G16KT P6SM FEW026
     FM301300 34011G17KT P6SM FEW250
     FM310000 33004KT P6SM SKC=



000
FTUS42 KTAE 300500
TAFDHN
TAF
KDHN 300530Z 3006/3106 29006KT P6SM FEW250
      TEMPO 3009/3011 BKN025
     FM301300 34011G17KT P6SM FEW250
     FM310000 34004KT P6SM SKC=



000
FTUS42 KTAE 300500
TAFVLD
TAF
KVLD 300530Z 3006/3106 24003KT P6SM FEW250
      TEMPO 3010/3012 BKN025
     FM301300 34010G15KT P6SM FEW250
     FM310000 33003KT P6SM SKC=



000
FTUS42 KTAE 300500
TAFTLH
TAF
KTLH 300530Z 3006/3106 00000KT P6SM FEW250
      TEMPO 3010/3012 BKN025
     FM301300 34010G15KT P6SM FEW250
     FM310000 36004KT P6SM SKC=



000
FTUS42 KTAE 300500
TAFABY
TAF
KABY 300530Z 3006/3106 27005KT P6SM FEW250
      TEMPO 3009/3011 BKN025
     FM301300 34011G17KT P6SM FEW250
     FM310000 33004KT P6SM SKC=



000
FTUS42 KTAE 292300
TAFVLD
TAF
KVLD 292334Z 3000/3024 18003KT P6SM SCT030
      TEMPO 3009/3013 5SM -SHRA BR SCT007 BKN015
     FM301300 34010KT P6SM SCT030=



000
FTUS42 KTAE 292300
TAFDHN
TAF
KDHN 292334Z 3000/3024 24007KT P6SM SCT030
      TEMPO 3004/3008 5SM -SHRA BR SCT007 BKN015
     FM300800 34010KT P6SM SCT030=



000
FTUS42 KTAE 292300
TAFTLH
TAF
KTLH 292334Z 3000/3024 18003KT P6SM SCT030
      TEMPO 3008/3012 5SM -SHRA BR SCT007 BKN015
     FM301200 34010KT P6SM SCT030=



000
FTUS42 KTAE 292300
TAFABY
TAF
KABY 292334Z 3000/3024 23005KT 5SM HZ SCT030
      TEMPO 3006/3008 5SM -SHRA BR SCT007 BKN015
     FM300900 34010KT P6SM SCT030=



000
FTUS42 KTAE 291700
TAFABY
TAF
KABY 291739Z 2918/3018 18008KT P6SM SCT250
     FM300300 22003KT P6SM SCT020 SCT250
     FM300900 33006KT P6SM BKN025
     FM301300 34010KT P6SM SKC=



000
FTUS42 KTAE 291700
TAFDHN
TAF
KDHN 291739Z 2918/3018 22010KT P6SM SCT250
     FM300100 23005KT P6SM BKN020
     FM300700 33010KT P6SM BKN015
     FM301200 35015KT P6SM SKC=



000
FTUS42 KTAE 291700
TAFVLD
TAF
KVLD 291739Z 2918/3018 18006KT P6SM SCT250
     FM300600 20003KT P6SM SCT020 SCT250
     FM301000 32003KT P6SM BKN025
     FM301400 36009KT P6SM SKC=



000
FTUS42 KTAE 291700
TAFTLH
TAF
KTLH 291739Z 2918/3018 18006KT P6SM SCT250
     FM300300 00000KT P6SM SCT020 SCT250
     FM300900 36004KT P6SM BKN025
     FM301400 34010KT P6SM SKC=



000
FTUS42 KTAE 291100
TAFDHN
TAF
KDHN 291120Z 2912/3012 00000KT P6SM SKC
     FM291600 18008KT P6SM SCT250
     FM300000 21007KT P6SM SCT250
     FM300800 28006KT P6SM BKN025=



000
FTUS42 KTAE 291100
TAFABY
TAF
KABY 291120Z 2912/3012 00000KT P6SM SKC
     FM291600 18006KT P6SM SCT250
     FM300000 21003KT P6SM SCT250
     FM300800 26006KT P6SM BKN025=



000
FTUS42 KTAE 291100
TAFVLD
TAF
KVLD 291120Z 2912/3012 00000KT P6SM SKC
     FM291600 18006KT P6SM SCT250
     FM300000 00000KT P6SM SCT250
     FM301000 24003KT P6SM BKN025=



000
FTUS42 KTAE 291100
TAFTLH
TAF
KTLH 291120Z 2912/3012 00000KT P6SM SKC
     FM291700 18006KT P6SM SCT250
     FM300000 00000KT P6SM SCT250
     FM300800 00000KT P6SM BKN025=



000
FTUS42 KTAE 290500
TAFTLH
TAF
KTLH 290529Z 2906/3006 00000KT P6SM FEW250
     FM291700 18006KT P6SM SCT250
     FM300000 00000KT P6SM SCT250=



000
FTUS42 KTAE 290500
TAFABY
TAF
KABY 290529Z 2906/3006 00000KT P6SM FEW250
     FM291600 18006KT P6SM SCT250
     FM300000 21003KT P6SM SCT250=



000
FTUS42 KTAE 290500
TAFVLD
TAF
KVLD 290529Z 2906/3006 00000KT P6SM SKC
     FM291600 18006KT P6SM SCT250
     FM300000 00000KT P6SM SCT250=



000
FTUS42 KTAE 290500
TAFDHN
TAF
KDHN 290529Z 2906/3006 13004KT P6SM FEW250
     FM291600 18008KT P6SM SCT250
     FM300000 21007KT P6SM SCT250=



000
FTUS42 KTAE 282300
TAFTLH
TAF
KTLH 282320Z 2900/2924 VRB03KT P6SM SKC
     FM291700 18006KT P6SM SCT250=



000
FTUS42 KTAE 282300
TAFVLD
TAF
KVLD 282320Z 2900/2924 VRB03KT P6SM SKC
     FM291600 16006KT P6SM SCT250=



000
FTUS42 KTAE 282300
TAFABY
TAF
KABY 282320Z 2900/2924 VRB03KT P6SM SKC
     FM291600 16006KT P6SM SCT250=



000
FTUS42 KTAE 282300
TAFDHN
TAF
KDHN 282320Z 2900/2924 11003KT P6SM SKC
     FM291600 17008KT P6SM SCT250=



000
FTUS42 KTAE 281700
TAFABY
TAF
KABY 281733Z 2818/2918 07008KT P6SM SKC
     FM290000 00000KT P6SM SKC
     FM291400 14006KT P6SM SKC=



000
FTUS42 KTAE 281700
TAFVLD
TAF
KVLD 281733Z 2818/2918 02009KT P6SM SKC
     FM290000 00000KT P6SM SKC
     FM291500 15007KT P6SM SKC=



000
FTUS42 KTAE 281700
TAFDHN
TAF
KDHN 281733Z 2818/2918 06005KT P6SM SKC
     FM290300 11003KT P6SM SKC
     FM291400 15007KT P6SM SKC=



000
FTUS42 KTAE 281700
TAFTLH
TAF
KTLH 281733Z 2818/2918 02008KT P6SM SKC
     FM290000 00000KT P6SM SKC
     FM291400 14006KT P6SM SKC=



000
FTUS42 KTAE 281100
TAFVLD
TAF
KVLD 281120Z 2812/2912 01005KT P6SM SKC=



000
FTUS42 KTAE 281100
TAFDHN
TAF
KDHN 281120Z 2812/2912 01005KT P6SM SKC=



000
FTUS42 KTAE 281100
TAFABY
TAF
KABY 281120Z 2812/2912 01005KT P6SM SKC=



000
FTUS42 KTAE 281100
TAFTLH
TAF
KTLH 281120Z 2812/2912 01005KT P6SM SKC=



000
FTUS42 KTAE 280500
TAFDHN
TAF
KDHN 280528Z 2806/2906 34005KT P6SM SKC=



000
FTUS42 KTAE 280500
TAFTLH
TAF
KTLH 280528Z 2806/2906 36005KT P6SM SKC=



000
FTUS42 KTAE 280500
TAFABY
TAF
KABY 280528Z 2806/2906 35005KT P6SM SKC=



000
FTUS42 KTAE 280500
TAFVLD
TAF
KVLD 280528Z 2806/2906 36005KT P6SM SKC=



    US Dept of Commerce
    National Oceanic and Atmospheric Administration
    National Weather Service
    1325 East West Highway
    Silver Spring, MD 20910
    Page Author: NWS Internet Services Team
Disclaimer
Information Quality
Credits
Glossary
Privacy Policy
Freedom of Information Act (FOIA)
About Us
Career Opportunities